Miguel Oliver — ECLX — position and weather

sailwx.info

Track history (hours):
 
Tides and Currents Weather Stations Pressure Air Temp Water Temp Dewpoint Dewpoint Depression Visibility Wind Speed Wind Dir Waves Ship Positions

Oceanographic research ship Miguel Oliver (Spain)

Ship's website: http://www.mapa.es/es/pesca/pags/miguel_web/index.htm

Last reported at 2017-Apr-25 11:08 UTC. Time now 2017-Apr-30 20:28 UTC.
Position N 36°19' W 005°13'.

Length 70 m; draft 5.5 m.

Type: Other ship. MMSI: 225322000.

Date/timePositionNaut miles runAvg speedWind from/ knotsBaromVisibWave heightAir tempDewpointWater temp
2017-Apr-25 11:08N 36°19' W 005°13'2 9.7
2017-Apr-25 10:56N 36°20' W 005°11'9 2.8
2017-Apr-25 07:51N 36°18' W 005°01'  
2017-Apr-23 00:57N 36°06' W 005°05'510.4
2017-Apr-23 00:28N 36°04' W 005°10'510.2
2017-Apr-23 00:01N 36°02' W 005°15'510.5
2017-Apr-22 23:30N 35°59' W 005°21'510.5
2017-Apr-22 23:00N 35°58' W 005°27'510.8
2017-Apr-22 22:30N 35°56' W 005°34'710.4
2017-Apr-22 21:47N 35°55' W 005°43'248 7.0
2017-Apr-21 10:32N 38°16' W 009°58'111.1
2017-Apr-21 10:29N 38°17' W 009°58'510.9
2017-Apr-21 10:00N 38°22' W 009°60'611.1
2017-Apr-21 09:30N 38°27' W 010°01'511.0
2017-Apr-21 09:00N 38°33' W 010°03'611.4
2017-Apr-21 08:30N 38°38' W 010°05'611.3
2017-Apr-21 08:00N 38°44' W 010°06'611.5
2017-Apr-21 07:30N 38°50' W 010°06'611.3
2017-Apr-21 07:00N 38°55' W 010°05'611.5
2017-Apr-21 06:30N 39°01' W 010°03'611.5
2017-Apr-21 06:00N 39°06' W 010°01'611.7
2017-Apr-21 05:30N 39°12' W 009°59'611.8
2017-Apr-21 05:00N 39°18' W 009°57'611.8
2017-Apr-21 04:30N 39°23' W 009°55'  
2017-Apr-17 10:58N 42°24' W 009°03'612.6
2017-Apr-17 10:29N 42°29' W 009°08'156 9.7
2017-Apr-16 18:25N 43°43' W 006°01'512.9
2017-Apr-16 18:00N 43°43' W 005°53'612.9
2017-Apr-16 17:29N 43°42' W 005°44'612.7
2017-Apr-16 17:00N 43°41' W 005°36'612.5
2017-Apr-16 16:30N 43°40' W 005°27'612.7
2017-Apr-16 16:00N 43°40' W 005°19'712.6
2017-Apr-16 15:27N 43°39' W 005°09'612.6
2017-Apr-16 14:57N 43°38' W 005°00'  
Track history (hours):
 
Tides and Currents Weather Stations Pressure Air Temp Water Temp Dewpoint Dewpoint Depression Visibility Wind Speed Wind Dir Waves Ship Positions

Oceanographic research ship Miguel Oliver (Spain)

Ship's website: http://www.mapa.es/es/pesca/pags/miguel_web/index.htm

Last reported at 2017-Apr-25 11:08 UTC. Time now 2017-Apr-30 20:28 UTC.
Position N 36°19' W 005°13'.

Length 70 m; draft 5.5 m.

Type: Other ship. MMSI: 225322000.

Date/timePositionNaut miles runAvg speedWind from/ knotsBaromVisibWave heightAir tempDewpointWater temp
2017-Apr-25 11:08N 36°19' W 005°13'2 9.7
2017-Apr-25 10:56N 36°20' W 005°11'9 2.8
2017-Apr-25 07:51N 36°18' W 005°01'  
2017-Apr-23 00:57N 36°06' W 005°05'510.4
2017-Apr-23 00:28N 36°04' W 005°10'510.2
2017-Apr-23 00:01N 36°02' W 005°15'510.5
2017-Apr-22 23:30N 35°59' W 005°21'510.5
2017-Apr-22 23:00N 35°58' W 005°27'510.8
2017-Apr-22 22:30N 35°56' W 005°34'710.4
2017-Apr-22 21:47N 35°55' W 005°43'248 7.0
2017-Apr-21 10:32N 38°16' W 009°58'111.1
2017-Apr-21 10:29N 38°17' W 009°58'510.9
2017-Apr-21 10:00N 38°22' W 009°60'611.1
2017-Apr-21 09:30N 38°27' W 010°01'511.0
2017-Apr-21 09:00N 38°33' W 010°03'611.4
2017-Apr-21 08:30N 38°38' W 010°05'611.3
2017-Apr-21 08:00N 38°44' W 010°06'611.5
2017-Apr-21 07:30N 38°50' W 010°06'611.3
2017-Apr-21 07:00N 38°55' W 010°05'611.5
2017-Apr-21 06:30N 39°01' W 010°03'611.5
2017-Apr-21 06:00N 39°06' W 010°01'611.7
2017-Apr-21 05:30N 39°12' W 009°59'611.8
2017-Apr-21 05:00N 39°18' W 009°57'611.8
2017-Apr-21 04:30N 39°23' W 009°55'  
2017-Apr-17 10:58N 42°24' W 009°03'612.6
2017-Apr-17 10:29N 42°29' W 009°08'156 9.7
2017-Apr-16 18:25N 43°43' W 006°01'512.9
2017-Apr-16 18:00N 43°43' W 005°53'612.9
2017-Apr-16 17:29N 43°42' W 005°44'612.7
2017-Apr-16 17:00N 43°41' W 005°36'612.5
2017-Apr-16 16:30N 43°40' W 005°27'612.7
2017-Apr-16 16:00N 43°40' W 005°19'712.6
2017-Apr-16 15:27N 43°39' W 005°09'612.6
2017-Apr-16 14:57N 43°38' W 005°00'  

Dump ship's entire track history